Time;durP1;ratioP1;P1;durP2;ratioP2;P2;SDS_P1;SDS_P2;PMS_P1;PMS_P2;Temp;Humidity;BMP_temperature;BMP_pressure;BME280_temperature;BME280_humidity;BME280_pressure;Samples;Min_cycle;Max_cycle;Signal;HPM_P1;HPM_P2
2022/06/11 00:03:22;;;;;;;7.93;4.57;;;;;15.70;101666.00;;;;10464528;28;20209;-78
2022/06/11 00:08:24;;;;;;;7.20;4.87;;;;;15.80;101675.00;;;;10466448;28;20267;-79
2022/06/11 00:13:26;;;;;;;10.85;4.95;;;;;16.00;101658.00;;;;10449709;28;20190;-79
2022/06/11 00:18:29;;;;;;;9.50;4.70;;;;;16.10;101672.00;;;;10483042;28;20205;-79
2022/06/11 00:23:32;;;;;;;9.88;5.55;;;;;16.20;101668.00;;;;10476419;28;20210;-79
2022/06/11 00:28:34;;;;;;;5.97;4.65;;;;;16.20;101668.00;;;;10448047;28;20205;-79
2022/06/11 00:33:37;;;;;;;6.43;3.92;;;;;16.20;101660.00;;;;10487900;28;20189;-79
2022/06/11 00:38:40;;;;;;;10.48;4.38;;;;;16.10;101661.00;;;;10491214;28;20201;-79
2022/06/11 00:43:43;;;;;;;9.77;4.60;;;;;16.20;101669.00;;;;10444359;28;20237;-79
2022/06/11 00:48:45;;;;;;;5.93;4.18;;;;;16.20;101652.00;;;;10425964;28;20186;-79
2022/06/11 00:54:00;;;;;;;9.15;4.65;;;;;16.20;101651.00;;;;10449131;28;20231;-79
2022/06/11 00:59:05;;;;;;;6.87;4.23;;;;;16.20;101635.00;;;;10470493;28;20545;-79
2022/06/11 01:04:54;;;;;;;7.15;4.95;;;;;16.20;101637.00;;;;10434068;28;20206;-79
2022/06/11 01:10:21;;;;;;;8.77;4.68;;;;;16.30;101635.00;;;;10276138;28;20199;-79
2022/06/11 01:15:40;;;;;;;11.02;5.50;;;;;16.30;101647.00;;;;10416826;28;20209;-79
2022/06/11 01:21:01;;;;;;;8.95;5.32;;;;;16.30;101642.00;;;;10488868;28;20756;-79
2022/06/11 01:26:46;;;;;;;17.83;5.65;;;;;16.40;101650.00;;;;10463189;28;20224;-79
2022/06/11 01:31:55;;;;;;;6.40;4.38;;;;;16.50;101647.00;;;;10451554;28;20718;-79
2022/06/11 01:37:14;;;;;;;4.57;4.13;;;;;16.40;101645.00;;;;10476655;28;20188;-79
2022/06/11 01:42:22;;;;;;;7.32;4.55;;;;;16.50;101645.00;;;;10453283;28;20193;-79
2022/06/11 01:47:24;;;;;;;9.10;4.63;;;;;16.60;101638.00;;;;10449091;28;20206;-79
2022/06/11 01:52:42;;;;;;;9.30;4.05;;;;;16.60;101627.00;;;;10494244;28;20283;-79
2022/06/11 01:58:14;;;;;;;6.90;3.90;;;;;16.70;101630.00;;;;10476330;28;20193;-78
2022/06/11 02:03:40;;;;;;;3.90;3.43;;;;;16.80;101631.00;;;;10416070;28;20210;-79
2022/06/11 02:08:54;;;;;;;5.03;3.20;;;;;16.90;101630.00;;;;10454101;28;20226;-79
2022/06/11 02:14:12;;;;;;;8.55;3.25;;;;;17.00;101631.00;;;;10459594;28;20543;-79
2022/06/11 02:19:20;;;;;;;5.72;3.97;;;;;17.10;101637.00;;;;10505361;28;20227;-79
2022/06/11 02:24:34;;;;;;;10.98;3.30;;;;;17.10;101636.00;;;;10487487;28;20213;-79
2022/06/11 02:29:36;;;;;;;5.70;2.95;;;;;17.10;101636.00;;;;10454679;28;20189;-79
2022/06/11 02:34:43;;;;;;;6.35;3.53;;;;;17.20;101641.00;;;;10449757;28;20189;-79
2022/06/11 02:39:46;;;;;;;7.20;2.78;;;;;17.20;101645.00;;;;10449781;28;20197;-79
2022/06/11 02:44:48;;;;;;;6.72;2.53;;;;;17.20;101646.00;;;;10480509;28;20229;-79
2022/06/11 02:49:51;;;;;;;4.32;2.45;;;;;17.30;101644.00;;;;10471408;28;20197;-79
2022/06/11 02:54:53;;;;;;;3.92;2.28;;;;;17.20;101652.00;;;;10462921;28;20186;-79
2022/06/11 02:59:57;;;;;;;3.10;2.08;;;;;17.20;101655.00;;;;10487695;28;20193;-79
2022/06/11 03:04:58;;;;;;;5.43;2.20;;;;;17.20;101660.00;;;;10469507;28;20270;-79
2022/06/11 03:10:00;;;;;;;3.58;2.05;;;;;17.20;101659.00;;;;10451960;28;20232;-79
2022/06/11 03:15:03;;;;;;;5.80;2.05;;;;;17.20;101665.00;;;;10481720;28;20197;-79
2022/06/11 03:20:07;;;;;;;5.95;1.90;;;;;17.20;101654.00;;;;10441315;28;20197;-79
2022/06/11 03:25:09;;;;;;;3.83;1.75;;;;;17.20;101659.00;;;;10437763;28;20206;-79
2022/06/11 03:30:14;;;;;;;4.18;2.17;;;;;17.20;101665.00;;;;10466833;28;20206;-79
2022/06/11 03:35:17;;;;;;;5.07;1.67;;;;;17.30;101664.00;;;;10449311;28;20196;-79
2022/06/11 03:40:19;;;;;;;6.30;1.95;;;;;17.30;101673.00;;;;10460876;28;20196;-80
2022/06/11 03:45:21;;;;;;;5.15;1.73;;;;;17.30;101681.00;;;;10468074;28;20279;-79
2022/06/11 03:50:35;;;;;;;4.03;1.80;;;;;17.40;101678.00;;;;10452615;28;20718;-79
2022/06/11 03:55:39;;;;;;;5.43;1.95;;;;;17.40;101690.00;;;;10472743;28;20304;-79
2022/06/11 04:06:02;;;;;;;6.78;1.60;;;;;17.40;101693.00;;;;10456897;28;20697;-80
2022/06/11 04:11:05;;;;;;;5.97;2.10;;;;;17.40;101697.00;;;;10469923;28;20197;-79
2022/06/11 04:16:19;;;;;;;4.45;1.60;;;;;17.30;101705.00;;;;10448279;28;20197;-79
2022/06/11 04:21:22;;;;;;;6.63;1.95;;;;;17.40;101703.00;;;;10456512;28;20198;-79
2022/06/11 04:26:28;;;;;;;7.22;2.10;;;;;17.50;101716.00;;;;10442816;28;20214;-79
2022/06/11 04:31:32;;;;;;;4.35;1.80;;;;;17.60;101713.00;;;;10415637;28;20288;-79
2022/06/11 04:36:40;;;;;;;5.40;2.08;;;;;17.60;101720.00;;;;10449453;28;20216;-79
2022/06/11 04:41:43;;;;;;;7.60;2.45;;;;;17.70;101721.00;;;;10426154;28;20269;-79
2022/06/11 04:46:46;;;;;;;6.72;1.75;;;;;17.70;101732.00;;;;10430088;28;20206;-79
2022/06/11 04:51:48;;;;;;;8.90;2.20;;;;;17.70;101732.00;;;;10476135;28;20229;-79
2022/06/11 04:56:51;;;;;;;5.28;1.80;;;;;17.60;101730.00;;;;10429495;28;20661;-80
2022/06/11 05:01:53;;;;;;;5.97;1.83;;;;;17.60;101735.00;;;;10434730;28;20292;-80
2022/06/11 05:06:55;;;;;;;4.13;1.90;;;;;17.70;101714.00;;;;10442979;28;20217;-79
2022/06/11 05:11:58;;;;;;;7.22;1.98;;;;;17.90;101729.00;;;;10449157;28;20196;-79
2022/06/11 05:17:01;;;;;;;9.45;2.22;;;;;18.60;101732.00;;;;10462842;28;20192;-79
2022/06/11 05:22:03;;;;;;;5.82;2.05;;;;;18.90;101741.00;;;;10442909;28;20194;-80
2022/06/11 05:27:09;;;;;;;6.25;2.03;;;;;18.30;101740.00;;;;10425848;28;20229;-79
2022/06/11 05:32:11;;;;;;;6.88;2.38;;;;;17.80;101755.00;;;;10424865;28;20201;-79
2022/06/11 05:37:14;;;;;;;7.55;2.53;;;;;17.40;101751.00;;;;10505491;28;20193;-79
2022/06/11 05:42:17;;;;;;;7.63;2.05;;;;;17.50;101744.00;;;;10457542;28;20193;-79
2022/06/11 05:47:22;;;;;;;6.85;2.22;;;;;18.20;101747.00;;;;10463481;28;20636;-79
2022/06/11 05:52:29;;;;;;;10.40;2.25;;;;;18.10;101769.00;;;;10427935;28;20205;-80
2022/06/11 05:57:32;;;;;;;7.30;2.10;;;;;17.40;101756.00;;;;10507604;28;20185;-79
2022/06/11 06:02:34;;;;;;;10.52;3.40;;;;;17.10;101754.00;;;;10474306;28;20201;-79
2022/06/11 06:07:36;;;;;;;9.38;2.13;;;;;17.30;101752.00;;;;10455211;28;20217;-79
2022/06/11 06:12:38;;;;;;;13.48;2.78;;;;;17.70;101753.00;;;;10436685;28;20310;-79
2022/06/11 06:17:41;;;;;;;12.07;2.58;;;;;18.00;101777.00;;;;10446366;28;20277;-80
2022/06/11 06:22:43;;;;;;;11.85;2.25;;;;;18.20;101776.00;;;;10482206;28;20282;-79
2022/06/11 06:27:45;;;;;;;9.57;2.47;;;;;17.70;101783.00;;;;10472169;28;20256;-79
2022/06/11 06:32:51;;;;;;;6.93;2.20;;;;;17.60;101781.00;;;;10480472;28;20184;-79
2022/06/11 06:37:53;;;;;;;11.38;2.40;;;;;17.80;101772.00;;;;10477914;28;20190;-79
2022/06/11 06:42:55;;;;;;;9.27;2.40;;;;;17.80;101776.00;;;;10478953;28;20269;-79
2022/06/11 06:47:57;;;;;;;14.05;2.33;;;;;18.00;101786.00;;;;10455636;28;20731;-79
2022/06/11 06:52:59;;;;;;;9.65;2.70;;;;;18.80;101777.00;;;;10450772;28;20209;-79
2022/06/11 06:58:05;;;;;;;9.75;2.75;;;;;19.50;101789.00;;;;10461843;28;20193;-79
2022/06/11 07:03:07;;;;;;;9.85;2.58;;;;;19.50;101792.00;;;;10497504;28;20207;-78
2022/06/11 07:08:12;;;;;;;8.82;2.53;;;;;20.60;101797.00;;;;10448045;28;20228;-79
2022/06/11 07:13:17;;;;;;;10.10;2.75;;;;;20.10;101784.00;;;;10448377;28;20190;-79
2022/06/11 07:18:42;;;;;;;10.20;2.65;;;;;20.60;101791.00;;;;10474555;28;20244;-79
2022/06/11 07:23:50;;;;;;;9.65;2.58;;;;;21.20;101786.00;;;;10484217;28;20682;-79
2022/06/11 07:29:05;;;;;;;10.38;2.97;;;;;21.70;101794.00;;;;10455107;28;20246;-80
2022/06/11 07:34:07;;;;;;;9.10;2.45;;;;;22.20;101785.00;;;;10457308;28;20190;-80
2022/06/11 07:39:09;;;;;;;9.52;2.50;;;;;22.80;101786.00;;;;10465574;28;20189;-80
2022/06/11 07:44:11;;;;;;;8.52;2.88;;;;;22.70;101793.00;;;;10477951;28;20202;-80
2022/06/11 07:49:16;;;;;;;9.45;2.53;;;;;22.10;101792.00;;;;10484404;28;20644;-80
2022/06/11 07:54:18;;;;;;;7.25;2.50;;;;;21.80;101795.00;;;;10467286;28;20190;-78
2022/06/11 07:59:20;;;;;;;8.90;2.85;;;;;21.70;101789.00;;;;10470188;28;20185;-80
2022/06/11 08:04:22;;;;;;;9.20;2.03;;;;;24.30;101784.00;;;;10454827;28;20680;-81
2022/06/11 08:09:24;;;;;;;13.02;2.80;;;;;25.30;101787.00;;;;10422482;28;20550;-81
2022/06/11 08:14:26;;;;;;;13.15;2.70;;;;;25.00;101786.00;;;;10435391;28;20280;-79
2022/06/11 08:19:28;;;;;;;10.32;2.15;;;;;25.20;101800.00;;;;10463101;28;20216;-78
2022/06/11 08:24:32;;;;;;;9.50;2.25;;;;;25.30;101801.00;;;;10472601;28;20213;-79
2022/06/11 08:29:34;;;;;;;9.05;2.55;;;;;25.60;101796.00;;;;10473621;28;20584;-79
2022/06/11 08:34:38;;;;;;;13.00;3.03;;;;;26.30;101800.00;;;;10468714;28;20193;-78
2022/06/11 08:39:41;;;;;;;10.00;2.60;;;;;26.00;101809.00;;;;10418610;28;20216;-79
2022/06/11 08:44:43;;;;;;;12.55;2.47;;;;;25.70;101814.00;;;;10453305;28;20201;-80
2022/06/11 08:49:49;;;;;;;10.68;2.70;;;;;25.70;101787.00;;;;10447510;28;20198;-79
2022/06/11 08:54:51;;;;;;;9.57;1.90;;;;;26.80;101795.00;;;;10481534;28;20637;-80
2022/06/11 09:00:17;;;;;;;7.95;2.33;;;;;26.60;101789.00;;;;10431349;28;20201;-80
2022/06/11 09:06:03;;;;;;;10.63;2.45;;;;;27.50;101789.00;;;;10435942;28;20225;-82
2022/06/11 09:11:56;;;;;;;10.75;2.72;;;;;28.20;101795.00;;;;10458854;28;20251;-81
2022/06/11 09:17:21;;;;;;;8.63;2.67;;;;;27.10;101782.00;;;;10450446;28;20199;-81
2022/06/11 09:23:04;;;;;;;7.28;2.53;;;;;28.90;101789.00;;;;10439245;28;20202;-81
2022/06/11 09:29:18;;;;;;;7.93;2.45;;;;;30.10;101781.00;;;;10410599;28;20333;-81
2022/06/11 09:42:27;;;;;;;10.23;2.35;;;;;30.70;101784.00;;;;10434726;28;20657;-81
2022/06/11 10:10:08;;;;;;;7.03;2.35;;;;;31.40;101769.00;;;;10291546;23;20541;-80
2022/06/11 10:15:35;;;;;;;8.43;2.20;;;;;31.70;101768.00;;;;10237795;28;20189;-81
2022/06/11 10:21:31;;;;;;;8.55;2.63;;;;;32.30;101774.00;;;;10233894;28;20194;-80
2022/06/11 10:27:33;;;;;;;7.40;2.65;;;;;31.20;101776.00;;;;10212104;28;20304;-80
2022/06/11 10:32:55;;;;;;;12.65;2.67;;;;;31.60;101778.00;;;;10208284;29;20198;-80
2022/06/11 10:38:16;;;;;;;7.55;2.38;;;;;29.80;101787.00;;;;10231582;29;20485;-79
2022/06/11 10:44:52;;;;;;;7.63;2.28;;;;;31.60;101774.00;;;;10209375;29;20303;-80
2022/06/11 10:50:30;;;;;;;7.55;2.42;;;;;31.80;101770.00;;;;10226452;28;20662;-81
2022/06/11 10:55:54;;;;;;;6.60;3.00;;;;;30.50;101751.00;;;;10214333;29;20197;-81
2022/06/11 11:01:49;;;;;;;6.20;2.40;;;;;30.50;101766.00;;;;10218579;29;20287;-80
2022/06/11 11:07:14;;;;;;;6.40;2.35;;;;;32.00;101760.00;;;;10225269;29;20258;-80
2022/06/11 11:12:21;;;;;;;6.18;1.98;;;;;33.00;101759.00;;;;10211373;29;20663;-81
2022/06/11 11:17:27;;;;;;;5.35;1.90;;;;;32.10;101767.00;;;;10227845;29;20194;-81
2022/06/11 11:22:29;;;;;;;6.72;2.30;;;;;32.00;101758.00;;;;10228508;29;20232;-82
2022/06/11 11:27:41;;;;;;;6.72;2.75;;;;;32.10;101754.00;;;;10232001;28;20221;-80
2022/06/11 11:32:47;;;;;;;6.90;2.05;;;;;32.10;101768.00;;;;10230782;28;20629;-80
2022/06/11 11:38:02;;;;;;;6.20;2.20;;;;;31.40;101756.00;;;;10255362;28;20280;-80
2022/06/11 11:43:10;;;;;;;7.70;2.30;;;;;33.30;101742.00;;;;10262719;28;20197;-80
2022/06/11 11:48:26;;;;;;;9.65;2.78;;;;;32.30;101753.00;;;;10229169;29;20249;-81
2022/06/11 11:53:59;;;;;;;6.40;2.08;;;;;29.80;101744.00;;;;10228897;29;20280;-81
2022/06/11 11:59:21;;;;;;;5.30;2.10;;;;;30.00;101747.00;;;;10195397;29;20194;-80
2022/06/11 12:04:51;;;;;;;5.35;1.77;;;;;28.80;101739.00;;;;10225664;29;20229;-80
2022/06/11 12:09:58;;;;;;;7.63;2.13;;;;;27.70;101743.00;;;;10227746;29;20204;-80
2022/06/11 12:15:14;;;;;;;5.95;1.83;;;;;29.30;101749.00;;;;10223233;28;20205;-80
2022/06/11 12:20:37;;;;;;;6.57;1.67;;;;;30.40;101728.00;;;;10186589;29;20204;-80
2022/06/11 12:26:08;;;;;;;5.50;1.30;;;;;32.30;101730.00;;;;10174396;29;20222;-80
2022/06/11 12:31:12;;;;;;;5.50;1.67;;;;;31.20;101738.00;;;;10214645;28;20181;-81
2022/06/11 12:36:34;;;;;;;5.75;1.60;;;;;29.80;101741.00;;;;10223311;29;20198;-80
2022/06/11 12:41:42;;;;;;;6.55;1.85;;;;;30.10;101737.00;;;;10157170;29;20229;-80
2022/06/11 12:47:02;;;;;;;5.70;2.08;;;;;30.10;101732.00;;;;10227658;29;20227;-80
2022/06/11 12:52:37;;;;;;;5.93;1.98;;;;;29.90;101731.00;;;;10210484;29;20212;-80
2022/06/11 12:57:58;;;;;;;3.65;1.67;;;;;29.30;101747.00;;;;10207791;29;20649;-80
2022/06/11 13:03:51;;;;;;;3.58;1.40;;;;;28.80;101741.00;;;;10211065;29;20204;-80
2022/06/11 13:09:01;;;;;;;5.40;1.70;;;;;30.80;101728.00;;;;10141532;29;20234;-79
2022/06/11 13:14:22;;;;;;;3.80;1.52;;;;;32.30;101730.00;;;;10168994;29;20197;-80
2022/06/11 13:19:52;;;;;;;6.43;1.92;;;;;32.40;101726.00;;;;10214779;29;20691;-81
2022/06/11 13:25:16;;;;;;;5.72;1.90;;;;;32.70;101729.00;;;;10197122;29;20221;-79
2022/06/11 13:30:36;;;;;;;7.40;1.95;;;;;30.80;101735.00;;;;10237969;28;20200;-80
2022/06/11 13:35:44;;;;;;;4.35;1.52;;;;;29.40;101736.00;;;;10203604;29;20631;-78
2022/06/11 13:40:54;;;;;;;4.97;1.55;;;;;29.10;101735.00;;;;10237500;29;20300;-80
2022/06/11 13:46:12;;;;;;;7.90;1.30;;;;;29.80;101727.00;;;;10199098;29;20590;-80
2022/06/11 13:51:17;;;;;;;7.45;1.58;;;;;31.10;101725.00;;;;10198822;29;20260;-80
2022/06/11 13:56:22;;;;;;;7.40;1.98;;;;;29.90;101734.00;;;;10255995;28;20247;-79
2022/06/11 14:01:52;;;;;;;6.10;1.65;;;;;28.60;101728.00;;;;10228564;29;20573;-79
2022/06/11 14:06:58;;;;;;;6.97;1.65;;;;;29.30;101704.00;;;;10198099;29;20286;-80
2022/06/11 14:12:04;;;;;;;4.38;1.40;;;;;31.90;101690.00;;;;10203775;29;20261;-80
2022/06/11 14:17:37;;;;;;;5.93;1.52;;;;;32.70;101690.00;;;;10246955;28;20206;-80
2022/06/11 14:23:09;;;;;;;5.28;1.50;;;;;32.00;101702.00;;;;10224468;28;20206;-79
2022/06/11 14:28:15;;;;;;;4.25;1.33;;;;;34.60;101682.00;;;;10220030;29;20218;-79
2022/06/11 14:33:16;;;;;;;4.72;1.70;;;;;35.40;101697.00;;;;10221077;29;20209;-79
2022/06/11 14:38:25;;;;;;;4.50;1.60;;;;;38.30;101682.00;;;;10201260;28;20201;-79
2022/06/11 14:43:52;;;;;;;3.92;1.40;;;;;33.20;101692.00;;;;10273549;28;20609;-79
2022/06/11 14:48:58;;;;;;;5.97;1.70;;;;;29.60;101692.00;;;;10203017;28;20233;-78
2022/06/11 14:54:11;;;;;;;6.68;1.85;;;;;31.20;101684.00;;;;10259377;28;20208;-80
2022/06/11 14:59:16;;;;;;;5.63;1.85;;;;;28.50;101677.00;;;;10226932;29;20193;-79
2022/06/11 15:04:35;;;;;;;4.30;1.75;;;;;34.40;101682.00;;;;10223095;29;20253;-79
2022/06/11 15:10:05;;;;;;;5.13;1.88;;;;;34.00;101689.00;;;;10210782;29;20673;-79
2022/06/11 15:15:36;;;;;;;3.35;1.52;;;;;35.70;101675.00;;;;10220183;29;20218;-79
2022/06/11 15:20:45;;;;;;;5.22;1.70;;;;;37.20;101663.00;;;;10177619;29;20565;-79
2022/06/11 15:25:51;;;;;;;3.92;1.65;;;;;38.90;101675.00;;;;10241174;29;20217;-78
2022/06/11 15:30:53;;;;;;;3.63;1.52;;;;;38.10;101689.00;;;;10239664;29;20201;-78
2022/06/11 15:36:06;;;;;;;4.72;1.70;;;;;30.80;101693.00;;;;10208887;29;20224;-78
2022/06/11 15:41:24;;;;;;;5.53;1.48;;;;;28.20;101679.00;;;;10196008;28;20201;-79
2022/06/11 15:46:38;;;;;;;7.35;1.50;;;;;30.10;101666.00;;;;10212345;29;20280;-79
2022/06/11 15:51:40;;;;;;;5.15;1.83;;;;;27.20;101682.00;;;;10255249;28;20204;-78
2022/06/11 15:56:44;;;;;;;5.70;1.65;;;;;26.40;101664.00;;;;10257199;28;20193;-82
2022/06/11 16:01:56;;;;;;;5.28;1.25;;;;;26.10;101670.00;;;;10226872;29;20185;-80
2022/06/11 16:07:06;;;;;;;3.03;1.50;;;;;26.50;101667.00;;;;10225028;28;20244;-81
2022/06/11 16:12:33;;;;;;;4.80;1.50;;;;;26.70;101671.00;;;;10207528;28;20194;-81
2022/06/11 16:17:41;;;;;;;6.40;1.65;;;;;26.30;101669.00;;;;10226049;29;20261;-81
2022/06/11 16:22:43;;;;;;;4.30;1.60;;;;;26.30;101675.00;;;;10225453;29;20248;-81
2022/06/11 16:27:48;;;;;;;3.15;1.40;;;;;25.40;101684.00;;;;10224852;29;20229;-78
2022/06/11 16:32:52;;;;;;;7.05;1.42;;;;;25.70;101676.00;;;;10225859;28;20252;-80
2022/06/11 16:37:54;;;;;;;5.35;1.35;;;;;26.40;101680.00;;;;10223700;28;20195;-79
2022/06/11 16:42:57;;;;;;;5.80;1.50;;;;;26.20;101682.00;;;;10242709;28;20730;-81
2022/06/11 16:48:05;;;;;;;4.80;1.65;;;;;25.80;101683.00;;;;10215720;28;20279;-80
2022/06/11 16:59:01;;;;;;;4.05;1.42;;;;;24.70;101690.00;;;;10221356;29;20197;-81
2022/06/11 17:04:29;;;;;;;5.78;1.65;;;;;24.60;101693.00;;;;10238439;29;20724;-79
2022/06/11 17:09:42;;;;;;;3.72;1.30;;;;;24.70;101693.00;;;;10206806;28;20272;-80
2022/06/11 17:15:00;;;;;;;5.22;1.55;;;;;24.00;101695.00;;;;10186556;28;20198;-82
2022/06/11 17:20:05;;;;;;;2.78;1.10;;;;;24.00;101692.00;;;;10214655;28;20526;-81
2022/06/11 17:25:10;;;;;;;4.32;1.25;;;;;24.30;101701.00;;;;10259380;28;20236;-81
2022/06/11 17:30:14;;;;;;;5.07;1.30;;;;;24.20;101697.00;;;;10228774;28;20669;-78
2022/06/11 17:35:22;;;;;;;5.40;2.10;;;;;24.00;101699.00;;;;10219172;28;20680;-77
2022/06/11 17:40:25;;;;;;;2.00;0.80;;;;;23.80;101701.00;;;;10199047;29;20202;-81
2022/06/11 17:45:28;;;;;;;5.03;1.60;;;;;23.70;101714.00;;;;10201056;29;20577;-81
2022/06/11 17:50:31;;;;;;;5.63;1.60;;;;;23.60;101705.00;;;;10217524;29;20335;-81
2022/06/11 17:55:34;;;;;;;3.97;1.40;;;;;23.40;101697.00;;;;10201156;29;20191;-81
2022/06/11 18:00:36;;;;;;;2.85;1.15;;;;;23.20;101704.00;;;;10206341;28;20718;-80
2022/06/11 18:05:43;;;;;;;4.18;1.38;;;;;23.00;101703.00;;;;10208284;28;20293;-79
2022/06/11 18:10:47;;;;;;;2.88;1.20;;;;;22.90;101699.00;;;;10253451;28;20224;-78
2022/06/11 18:15:53;;;;;;;3.78;1.45;;;;;22.80;101712.00;;;;10212900;28;20649;-79
2022/06/11 18:20:55;;;;;;;3.55;1.48;;;;;22.60;101703.00;;;;10241790;28;20197;-80
2022/06/11 18:25:58;;;;;;;3.00;1.83;;;;;22.60;101712.00;;;;10196390;28;20220;-79
2022/06/11 18:31:00;;;;;;;7.05;1.40;;;;;22.50;101713.00;;;;10206815;29;20205;-80
2022/06/11 18:36:03;;;;;;;5.15;2.08;;;;;22.30;101713.00;;;;10192723;29;20185;-80
2022/06/11 18:41:05;;;;;;;4.88;1.35;;;;;22.10;101708.00;;;;10213716;28;20198;-79
2022/06/11 18:46:07;;;;;;;4.43;1.65;;;;;22.00;101725.00;;;;10216886;28;20228;-80
2022/06/11 18:51:09;;;;;;;6.72;1.40;;;;;21.90;101720.00;;;;10230735;28;20197;-78
2022/06/11 18:56:12;;;;;;;5.40;1.77;;;;;21.70;101728.00;;;;10245440;28;20269;-80
2022/06/11 19:01:13;;;;;;;5.63;1.50;;;;;21.50;101728.00;;;;10224966;29;20202;-80
2022/06/11 19:06:16;;;;;;;7.30;1.60;;;;;21.40;101733.00;;;;10212550;29;20320;-82
2022/06/11 19:11:19;;;;;;;5.00;1.60;;;;;21.30;101725.00;;;;10198621;28;20201;-79
2022/06/11 19:16:21;;;;;;;6.80;1.85;;;;;21.40;101725.00;;;;10239601;29;20399;-80
2022/06/11 19:21:24;;;;;;;2.50;1.20;;;;;21.30;101729.00;;;;10224229;29;20198;-80
2022/06/11 19:26:26;;;;;;;3.45;0.93;;;;;21.40;101738.00;;;;10254819;28;20217;-79
2022/06/11 19:31:28;;;;;;;3.78;1.13;;;;;21.10;101733.00;;;;10210022;29;20198;-80
2022/06/11 19:36:35;;;;;;;3.78;1.25;;;;;20.70;101747.00;;;;10210360;28;20197;-80
2022/06/11 19:41:43;;;;;;;4.65;1.50;;;;;20.30;101740.00;;;;10226371;29;20289;-79
2022/06/11 19:46:45;;;;;;;3.40;1.00;;;;;19.90;101740.00;;;;10228616;28;20236;-79
2022/06/11 19:51:48;;;;;;;2.28;1.00;;;;;19.60;101743.00;;;;10199728;28;20695;-79
2022/06/11 19:56:50;;;;;;;3.88;1.45;;;;;19.30;101744.00;;;;10221523;28;20189;-79
2022/06/11 20:01:52;;;;;;;6.15;1.58;;;;;19.10;101741.00;;;;10209452;28;20265;-78
2022/06/11 20:06:55;;;;;;;5.07;1.42;;;;;18.80;101749.00;;;;10209146;28;20225;-79
2022/06/11 20:11:57;;;;;;;4.65;1.30;;;;;18.60;101756.00;;;;10203501;29;20197;-79
2022/06/11 20:16:59;;;;;;;3.78;1.42;;;;;18.30;101758.00;;;;10222563;29;20194;-79
2022/06/11 20:22:02;;;;;;;3.28;1.00;;;;;18.10;101762.00;;;;10210540;29;20605;-79
2022/06/11 20:27:05;;;;;;;5.57;1.38;;;;;18.00;101773.00;;;;10232610;28;20265;-79
2022/06/11 20:32:07;;;;;;;3.70;1.35;;;;;17.80;101775.00;;;;10212340;29;20221;-79
2022/06/11 20:37:09;;;;;;;6.38;1.45;;;;;17.60;101778.00;;;;10224017;29;20197;-79
2022/06/11 20:42:11;;;;;;;4.93;1.63;;;;;17.40;101770.00;;;;10224243;28;20202;-78
2022/06/11 20:47:13;;;;;;;5.57;1.48;;;;;17.30;101773.00;;;;10207210;29;20213;-79
2022/06/11 20:52:19;;;;;;;4.70;1.70;;;;;17.30;101777.00;;;;10204419;29;20236;-79
2022/06/11 20:57:22;;;;;;;4.43;1.35;;;;;17.30;101775.00;;;;10221752;29;20194;-79
2022/06/11 21:02:27;;;;;;;6.90;1.60;;;;;17.20;101777.00;;;;10221544;29;20660;-79
2022/06/11 21:12:50;;;;;;;3.08;1.35;;;;;16.80;101778.00;;;;10219902;28;20665;-79
2022/06/11 21:17:52;;;;;;;2.80;1.10;;;;;16.70;101780.00;;;;10232009;28;20200;-79
2022/06/11 21:22:56;;;;;;;3.88;1.40;;;;;16.70;101772.00;;;;10242571;28;20219;-79
2022/06/11 21:27:58;;;;;;;6.22;1.52;;;;;16.50;101775.00;;;;10243008;28;20212;-79
2022/06/11 21:33:02;;;;;;;5.28;1.40;;;;;16.30;101779.00;;;;10243174;28;20650;-79
2022/06/11 21:38:05;;;;;;;4.72;1.48;;;;;16.10;101774.00;;;;10254524;28;20237;-79
2022/06/11 21:43:07;;;;;;;3.03;1.50;;;;;16.00;101767.00;;;;10261723;28;20680;-79
2022/06/11 21:48:10;;;;;;;5.45;2.15;;;;;15.90;101768.00;;;;10244006;28;20212;-80
2022/06/11 21:53:12;;;;;;;5.53;1.70;;;;;15.80;101767.00;;;;10233489;29;20216;-80
2022/06/11 21:58:14;;;;;;;4.88;1.63;;;;;15.70;101773.00;;;;10229313;29;20190;-79
2022/06/11 22:03:16;;;;;;;7.03;1.70;;;;;15.60;101779.00;;;;10230197;28;20202;-80
2022/06/11 22:08:18;;;;;;;5.50;1.50;;;;;15.60;101781.00;;;;10223980;29;20220;-80
2022/06/11 22:13:20;;;;;;;6.37;1.87;;;;;15.50;101786.00;;;;10223712;28;20550;-80
2022/06/11 22:18:22;;;;;;;6.13;1.97;;;;;15.40;101784.00;;;;10230455;29;20194;-79
2022/06/11 22:23:24;;;;;;;6.33;1.60;;;;;15.30;101797.00;;;;10215846;29;20249;-80
2022/06/11 22:28:26;;;;;;;6.40;1.67;;;;;15.20;101809.00;;;;10202043;29;20253;-80
2022/06/11 22:33:29;;;;;;;4.73;1.67;;;;;15.10;101805.00;;;;10227128;29;20205;-80
2022/06/11 22:38:31;;;;;;;10.07;2.07;;;;;14.90;101810.00;;;;10240757;29;20217;-80
2022/06/11 22:43:33;;;;;;;9.03;1.47;;;;;14.80;101811.00;;;;10244790;29;20206;-80
2022/06/11 22:48:35;;;;;;;3.20;1.37;;;;;14.80;101822.00;;;;10230632;29;20220;-80
2022/06/11 22:53:39;;;;;;;6.03;1.33;;;;;14.70;101811.00;;;;10231187;29;20268;-79
2022/06/11 22:58:42;;;;;;;3.27;1.33;;;;;14.70;101815.00;;;;10202348;29;20187;-80
2022/06/11 23:03:46;;;;;;;3.60;1.23;;;;;14.90;101815.00;;;;10246367;29;20197;-79
2022/06/11 23:08:48;;;;;;;3.70;1.17;;;;;15.00;101817.00;;;;10231003;29;20226;-80
2022/06/11 23:13:50;;;;;;;4.60;0.90;;;;;15.00;101820.00;;;;10245389;29;20198;-80
2022/06/11 23:18:53;;;;;;;4.17;0.93;;;;;15.00;101823.00;;;;10243502;29;20217;-79
2022/06/11 23:23:56;;;;;;;6.13;1.00;;;;;15.00;101823.00;;;;10214363;28;20665;-80
2022/06/11 23:29:00;;;;;;;4.57;1.70;;;;;14.90;101815.00;;;;10180333;29;20214;-79
2022/06/11 23:34:02;;;;;;;5.53;1.30;;;;;14.90;101815.00;;;;10179999;29;20555;-79
2022/06/11 23:39:04;;;;;;;3.40;1.00;;;;;14.80;101825.00;;;;10218606;29;20239;-80
2022/06/11 23:44:06;;;;;;;3.00;0.93;;;;;14.70;101820.00;;;;10171435;29;20198;-79
2022/06/11 23:49:09;;;;;;;3.80;1.00;;;;;14.50;101824.00;;;;10186677;29;20712;-79
2022/06/11 23:54:11;;;;;;;7.63;1.37;;;;;14.40;101826.00;;;;10170281;29;20230;-80
2022/06/11 23:59:13;;;;;;;4.43;1.00;;;;;14.30;101823.00;;;;10207313;29;20249;-80
